createdAt,value
2022-11-07T00:00:56.571Z,3.38
2022-11-07T00:01:59.334Z,2.95
2022-11-07T00:03:01.695Z,3.20
2022-11-07T00:04:04.254Z,2.97
2022-11-07T00:05:07.229Z,2.92
2022-11-07T00:06:11.435Z,3.72
2022-11-07T00:07:13.775Z,4.88
2022-11-07T00:08:16.128Z,6.70
2022-11-07T00:09:18.479Z,6.65
2022-11-07T00:10:20.767Z,6.45
2022-11-07T00:11:23.110Z,5.38
2022-11-07T00:12:25.608Z,4.97
2022-11-07T00:13:28.953Z,5.18
2022-11-07T00:14:31.259Z,4.05
2022-11-07T00:15:33.675Z,4.47
2022-11-07T00:16:36.109Z,3.35
2022-11-07T00:17:38.491Z,3.15
2022-11-07T00:18:40.800Z,2.60
2022-11-07T00:19:43.105Z,2.67
2022-11-07T00:20:45.387Z,2.53
2022-11-07T00:21:48.967Z,2.03
2022-11-07T00:22:51.350Z,1.95
2022-11-07T00:23:53.706Z,2.03
2022-11-07T00:24:55.962Z,2.17
2022-11-07T00:26:06.473Z,2.00
2022-11-07T00:27:09.090Z,2.92
2022-11-07T00:28:11.545Z,2.47
2022-11-07T00:29:18.826Z,2.55
2022-11-07T00:30:21.156Z,2.20
2022-11-07T00:31:23.989Z,2.33
2022-11-07T00:32:26.356Z,2.00
2022-11-07T00:33:29.462Z,2.38
2022-11-07T00:34:35.115Z,2.13
2022-11-07T00:35:41.886Z,2.13
2022-11-07T00:36:44.244Z,2.33
2022-11-07T00:37:46.580Z,2.55
2022-11-07T00:38:48.944Z,1.83
2022-11-07T00:39:51.428Z,2.00
2022-11-07T00:41:01.920Z,1.70
2022-11-07T00:42:04.402Z,1.85
2022-11-07T00:43:06.781Z,1.92
2022-11-07T00:44:09.303Z,2.22
2022-11-07T00:45:11.861Z,1.88
2022-11-07T00:46:16.738Z,2.67
2022-11-07T00:47:19.064Z,2.22
2022-11-07T00:48:21.478Z,2.40
2022-11-07T00:49:23.875Z,2.40
2022-11-07T00:50:26.182Z,1.88
2022-11-07T00:51:28.920Z,2.25
2022-11-07T00:52:31.288Z,2.05
2022-11-07T00:53:33.669Z,2.30
2022-11-07T00:54:36.000Z,1.92
2022-11-07T00:55:38.336Z,1.92
2022-11-07T00:56:40.705Z,2.08
2022-11-07T00:57:43.048Z,2.10
2022-11-07T00:58:45.671Z,1.85
2022-11-07T00:59:48.004Z,1.98
2022-11-07T01:00:50.360Z,2.03
2022-11-07T01:01:52.832Z,2.00
2022-11-07T01:03:14.905Z,2.00
2022-11-07T01:04:35.941Z,2.08
2022-11-07T01:05:38.686Z,2.28
2022-11-07T01:06:43.075Z,2.20
2022-11-07T01:07:45.404Z,1.70
2022-11-07T01:08:48.190Z,1.75
2022-11-07T01:09:50.452Z,1.80
2022-11-07T01:10:53.461Z,1.80
2022-11-07T01:11:55.755Z,1.75
2022-11-07T01:12:58.080Z,2.33
2022-11-07T01:14:02.039Z,1.98
2022-11-07T01:15:04.704Z,1.83
2022-11-07T01:16:11.107Z,2.15
2022-11-07T01:17:13.435Z,2.20
2022-11-07T01:18:16.041Z,1.90
2022-11-07T01:19:19.336Z,1.95
2022-11-07T01:20:21.689Z,1.73
2022-11-07T01:21:24.092Z,1.77
2022-11-07T01:22:26.382Z,1.80
2022-11-07T01:23:28.696Z,1.70
2022-11-07T01:24:31.079Z,2.10
2022-11-07T01:25:33.385Z,1.80
2022-11-07T01:26:37.458Z,1.67
2022-11-07T01:27:39.716Z,1.67
2022-11-07T01:28:42.406Z,1.70
2022-11-07T01:29:44.798Z,1.63
2022-11-07T01:30:47.103Z,1.65
2022-11-07T01:31:49.406Z,1.75
2022-11-07T01:32:51.729Z,1.60
2022-11-07T01:33:54.080Z,1.92
2022-11-07T01:34:56.445Z,1.80
2022-11-07T01:36:13.765Z,1.77
2022-11-07T01:37:16.050Z,1.60
2022-11-07T01:38:18.402Z,1.63
2022-11-07T01:39:20.801Z,1.60
2022-11-07T01:40:23.207Z,1.75
2022-11-07T01:41:28.765Z,1.42
2022-11-07T01:42:31.244Z,1.83
2022-11-07T01:43:46.570Z,1.80
2022-11-07T01:44:51.953Z,20.13
2022-11-07T01:45:54.242Z,44.63
2022-11-07T01:46:59.020Z,47.92
2022-11-07T01:48:02.922Z,20.05
2022-11-07T01:49:22.590Z,12.60
2022-11-07T01:50:25.123Z,8.55
2022-11-07T01:51:28.456Z,7.47
2022-11-07T01:52:34.924Z,6.50
2022-11-07T01:53:38.044Z,5.30
2022-11-07T01:54:52.022Z,4.20
2022-11-07T01:55:54.561Z,3.80
2022-11-07T01:56:59.488Z,3.55
2022-11-07T01:58:05.630Z,2.90
2022-11-07T01:59:11.144Z,3.10
2022-11-07T02:00:16.776Z,3.00
2022-11-07T02:01:19.308Z,2.65
2022-11-07T02:02:24.995Z,2.70
2022-11-07T02:03:27.885Z,2.90
2022-11-07T02:04:31.742Z,2.10
2022-11-07T02:05:54.286Z,2.08
2022-11-07T02:07:09.753Z,2.13
2022-11-07T02:08:13.782Z,2.22
2022-11-07T02:09:16.164Z,1.95
2022-11-07T02:10:19.593Z,2.08
2022-11-07T02:11:22.531Z,1.80
2022-11-07T02:12:26.479Z,1.27
2022-11-07T02:13:31.898Z,1.80
2022-11-07T02:14:34.395Z,2.10
2022-11-07T02:15:37.117Z,1.70
2022-11-07T02:16:39.487Z,1.30
2022-11-07T02:17:42.003Z,1.30
2022-11-07T02:18:45.304Z,1.83
2022-11-07T02:19:53.969Z,16.48
2022-11-07T02:21:08.433Z,21.77
2022-11-07T02:22:13.868Z,9.23
2022-11-07T02:23:38.258Z,6.15
2022-11-07T02:24:40.975Z,5.15
2022-11-07T02:25:43.302Z,3.70
2022-11-07T02:26:45.818Z,4.60
2022-11-07T02:27:58.122Z,3.60
2022-11-07T02:29:03.510Z,2.95
2022-11-07T02:30:10.769Z,1.92
2022-11-07T02:31:13.181Z,1.80
2022-11-07T02:32:15.579Z,1.77
2022-11-07T02:33:23.024Z,1.60
2022-11-07T02:34:25.359Z,1.80
2022-11-07T02:35:45.828Z,1.92
2022-11-07T02:36:48.985Z,1.55
2022-11-07T02:37:51.467Z,1.70
2022-11-07T02:38:58.580Z,1.70
2022-11-07T02:40:07.966Z,1.85
2022-11-07T02:41:15.283Z,2.05
2022-11-07T02:42:17.845Z,2.15
2022-11-07T02:43:23.589Z,1.50
2022-11-07T02:44:26.640Z,1.70
2022-11-07T02:45:33.065Z,1.90
2022-11-07T02:46:36.109Z,1.92
2022-11-07T02:47:38.446Z,1.70
2022-11-07T02:48:44.478Z,2.40
2022-11-07T02:49:46.846Z,1.85
2022-11-07T02:50:49.693Z,1.90
2022-11-07T02:51:52.061Z,1.90
2022-11-07T02:53:20.310Z,1.38
2022-11-07T02:54:22.737Z,1.67
2022-11-07T02:55:25.057Z,1.50
2022-11-07T02:56:27.403Z,1.20
2022-11-07T02:57:29.803Z,1.30
2022-11-07T02:58:32.659Z,1.38
2022-11-07T02:59:35.024Z,1.30
2022-11-07T03:00:37.331Z,1.13
2022-11-07T03:01:39.719Z,0.98
2022-11-07T03:02:46.917Z,1.35
2022-11-07T03:03:51.142Z,1.00
2022-11-07T03:04:53.478Z,1.10
2022-11-07T03:05:56.119Z,1.00
2022-11-07T03:06:58.683Z,1.00
2022-11-07T03:08:00.958Z,1.00
2022-11-07T03:09:03.703Z,32.67
2022-11-07T03:10:06.467Z,15.32
2022-11-07T03:11:11.724Z,11.52
2022-11-07T03:12:14.070Z,12.63
2022-11-07T03:13:16.726Z,7.45
2022-11-07T03:14:19.497Z,5.57
2022-11-07T03:15:21.891Z,20.08
2022-11-07T03:16:24.263Z,7.10
2022-11-07T03:17:26.640Z,5.03
2022-11-07T03:18:29.037Z,5.80
2022-11-07T03:19:31.350Z,6.95
2022-11-07T03:20:33.873Z,6.13
2022-11-07T03:21:36.195Z,4.93
2022-11-07T03:22:38.837Z,5.88
2022-11-07T03:23:41.299Z,4.88
2022-11-07T03:24:43.601Z,5.18
2022-11-07T03:25:46.085Z,5.75
2022-11-07T03:26:48.375Z,5.45
2022-11-07T03:27:51.078Z,5.32
2022-11-07T03:28:53.420Z,5.45
2022-11-07T03:29:55.793Z,4.93
2022-11-07T03:31:02.412Z,5.43
2022-11-07T03:32:05.165Z,5.47
2022-11-07T03:33:07.796Z,5.30
2022-11-07T03:34:10.239Z,5.57
2022-11-07T03:35:12.628Z,5.38
2022-11-07T03:36:14.962Z,5.53
2022-11-07T03:37:17.479Z,5.15
2022-11-07T03:38:20.022Z,5.00
2022-11-07T03:39:25.784Z,5.22
2022-11-07T03:40:28.666Z,4.63
2022-11-07T03:41:30.967Z,5.00
2022-11-07T03:42:41.169Z,4.68
2022-11-07T03:43:45.254Z,5.38
2022-11-07T03:44:47.577Z,14.65
2022-11-07T03:45:50.031Z,30.75
2022-11-07T03:46:52.300Z,11.98
2022-11-07T03:47:54.670Z,8.82
2022-11-07T03:48:57.079Z,6.80
2022-11-07T03:49:59.547Z,5.10
2022-11-07T03:51:02.126Z,5.85
2022-11-07T03:52:04.733Z,31.33
2022-11-07T03:53:10.148Z,20.58
2022-11-07T03:54:12.501Z,16.92
2022-11-07T03:55:16.175Z,15.48
2022-11-07T03:56:18.544Z,14.85
2022-11-07T03:57:20.861Z,12.48
2022-11-07T03:58:25.146Z,11.13
2022-11-07T03:59:27.489Z,10.15
2022-11-07T04:00:29.954Z,8.82
2022-11-07T04:01:32.381Z,8.63
2022-11-07T04:02:35.186Z,7.45
2022-11-07T04:03:37.694Z,8.00
2022-11-07T04:04:40.215Z,7.70
2022-11-07T04:05:42.599Z,7.10
2022-11-07T04:06:45.166Z,7.53
2022-11-07T04:07:47.527Z,7.20
2022-11-07T04:08:49.936Z,6.70
2022-11-07T04:09:52.322Z,7.10
2022-11-07T04:10:54.860Z,6.57
2022-11-07T04:12:15.712Z,6.35
2022-11-07T04:13:36.733Z,6.07
2022-11-07T04:14:57.803Z,6.93
2022-11-07T04:16:19.055Z,8.13
2022-11-07T04:17:21.638Z,11.48
2022-11-07T04:18:24.040Z,22.75
2022-11-07T04:19:26.418Z,10.50
2022-11-07T04:20:30.370Z,13.52
2022-11-07T04:21:32.661Z,13.57
2022-11-07T04:22:35.504Z,11.65
2022-11-07T04:23:37.950Z,9.98
2022-11-07T04:24:45.760Z,9.80
2022-11-07T04:26:07.455Z,8.90
2022-11-07T04:27:32.597Z,9.50
2022-11-07T04:28:34.923Z,8.13
2022-11-07T04:29:37.232Z,8.02
2022-11-07T04:30:39.552Z,8.10
2022-11-07T04:31:41.839Z,8.05
2022-11-07T04:32:47.682Z,8.00
2022-11-07T04:33:50.073Z,7.22
2022-11-07T04:34:52.502Z,8.60
2022-11-07T04:35:54.810Z,7.57
2022-11-07T04:36:57.109Z,8.07
2022-11-07T04:38:00.643Z,7.57
2022-11-07T04:39:03.119Z,7.68
2022-11-07T04:40:06.039Z,7.13
2022-11-07T04:41:19.577Z,6.82
2022-11-07T04:42:21.985Z,7.35
2022-11-07T04:43:26.054Z,7.03
2022-11-07T04:44:28.421Z,7.28
2022-11-07T04:45:30.997Z,7.28
2022-11-07T04:46:33.339Z,7.68
2022-11-07T04:47:40.153Z,7.32
2022-11-07T04:48:44.065Z,7.55
2022-11-07T04:49:46.371Z,7.53
2022-11-07T04:50:49.139Z,7.63
2022-11-07T04:51:57.082Z,7.53
2022-11-07T04:52:59.470Z,6.65
2022-11-07T04:54:01.855Z,6.95
2022-11-07T04:55:05.218Z,6.28
2022-11-07T04:56:07.720Z,5.90
2022-11-07T04:57:10.059Z,5.70
2022-11-07T04:58:12.461Z,5.93
2022-11-07T04:59:14.761Z,6.63
2022-11-07T05:00:18.680Z,6.55
2022-11-07T05:01:21.215Z,5.90
2022-11-07T05:02:25.286Z,6.35
2022-11-07T05:03:27.855Z,6.43
2022-11-07T05:04:30.165Z,6.22
2022-11-07T05:05:32.653Z,5.70
2022-11-07T05:06:36.645Z,6.15
2022-11-07T05:07:39.905Z,6.38
2022-11-07T05:08:42.355Z,6.00
2022-11-07T05:09:44.693Z,6.22
2022-11-07T05:10:47.094Z,5.70
2022-11-07T05:11:49.443Z,6.13
2022-11-07T05:12:52.525Z,6.50
2022-11-07T05:13:54.949Z,5.97
2022-11-07T05:14:58.014Z,5.47
2022-11-07T05:16:00.334Z,6.28
2022-11-07T05:17:04.024Z,5.78
2022-11-07T05:18:06.402Z,5.53
2022-11-07T05:19:16.837Z,5.93
2022-11-07T05:20:45.434Z,5.53
2022-11-07T05:21:48.021Z,6.00
2022-11-07T05:23:09.133Z,6.13
2022-11-07T05:24:12.509Z,6.22
2022-11-07T05:25:14.891Z,4.90
2022-11-07T05:26:18.040Z,5.40
2022-11-07T05:27:21.796Z,6.35
2022-11-07T05:28:36.976Z,5.25
2022-11-07T05:29:41.430Z,5.32
2022-11-07T05:30:45.599Z,5.63
2022-11-07T05:31:47.889Z,5.45
2022-11-07T05:32:50.336Z,5.63
2022-11-07T05:33:53.147Z,5.88
2022-11-07T05:34:55.585Z,5.90
2022-11-07T05:36:07.616Z,5.75
2022-11-07T05:37:11.538Z,5.20
2022-11-07T05:38:13.836Z,5.85
2022-11-07T05:39:16.255Z,5.65
2022-11-07T05:40:18.636Z,7.05
2022-11-07T05:41:22.012Z,7.22
2022-11-07T05:42:24.311Z,50.80
2022-11-07T05:43:26.649Z,13.93
2022-11-07T05:44:29.762Z,9.35
2022-11-07T05:45:33.756Z,28.27
2022-11-07T05:46:36.243Z,20.52
2022-11-07T05:47:38.522Z,19.15
2022-11-07T05:48:40.910Z,14.63
2022-11-07T05:49:43.267Z,13.65
2022-11-07T05:50:45.783Z,11.43
2022-11-07T05:51:48.156Z,10.90
2022-11-07T05:52:50.525Z,10.13
2022-11-07T05:53:52.839Z,9.82
2022-11-07T05:54:55.330Z,9.60
2022-11-07T05:55:57.686Z,9.45
2022-11-07T05:57:00.098Z,8.88
2022-11-07T05:58:11.500Z,9.05
2022-11-07T06:00:16.759Z,8.07
2022-11-07T06:01:19.086Z,8.63
2022-11-07T06:02:21.525Z,8.52
2022-11-07T06:03:23.954Z,7.78
2022-11-07T06:04:26.260Z,9.50
2022-11-07T06:05:29.392Z,7.85
2022-11-07T06:06:31.748Z,8.25
2022-11-07T06:07:39.107Z,8.43
2022-11-07T06:08:41.564Z,8.30
2022-11-07T06:09:43.884Z,7.15
2022-11-07T06:10:46.226Z,8.20
2022-11-07T06:11:48.640Z,7.30
2022-11-07T06:13:01.911Z,7.97
2022-11-07T06:14:04.228Z,7.10
2022-11-07T06:15:07.199Z,7.32
2022-11-07T06:16:09.506Z,6.82
2022-11-07T06:17:11.795Z,7.43
2022-11-07T06:18:20.431Z,7.18
2022-11-07T06:19:22.792Z,7.32
2022-11-07T06:20:25.230Z,7.15
2022-11-07T06:21:27.832Z,7.13
2022-11-07T06:22:31.029Z,7.50
2022-11-07T06:23:33.704Z,7.50
2022-11-07T06:24:36.046Z,7.50
2022-11-07T06:25:38.673Z,6.35
2022-11-07T06:26:41.208Z,6.22
2022-11-07T06:27:43.772Z,6.70
2022-11-07T06:28:46.129Z,7.45
2022-11-07T06:29:48.765Z,6.85
2022-11-07T06:30:51.296Z,7.38
2022-11-07T06:31:53.658Z,6.65
2022-11-07T06:32:56.303Z,6.60
2022-11-07T06:33:58.826Z,8.05
2022-11-07T06:35:02.316Z,7.43
2022-11-07T06:36:06.777Z,6.57
2022-11-07T06:37:09.120Z,6.90
2022-11-07T06:38:13.186Z,6.95
2022-11-07T06:39:15.444Z,7.00
2022-11-07T06:40:17.812Z,6.30
2022-11-07T06:41:20.228Z,6.78
2022-11-07T06:42:25.615Z,6.10
2022-11-07T06:43:31.426Z,6.57
2022-11-07T06:44:36.185Z,6.20
2022-11-07T06:45:39.132Z,6.65
2022-11-07T06:46:41.723Z,6.60
2022-11-07T06:47:44.044Z,7.07
2022-11-07T06:48:46.537Z,6.13
2022-11-07T06:49:48.875Z,6.57
2022-11-07T06:50:57.549Z,6.47
2022-11-07T06:51:59.853Z,6.57
2022-11-07T06:53:06.961Z,7.13
2022-11-07T06:54:09.640Z,6.32
2022-11-07T06:55:12.125Z,6.47
2022-11-07T06:56:15.961Z,6.82
2022-11-07T06:57:18.358Z,6.47
2022-11-07T06:58:21.374Z,6.70
2022-11-07T06:59:23.683Z,6.43
2022-11-07T07:00:26.932Z,6.65
2022-11-07T07:01:29.664Z,6.95
2022-11-07T07:02:56.917Z,5.65
2022-11-07T07:03:54.517Z,6.57
2022-11-07T07:04:57.077Z,6.68
2022-11-07T07:06:07.167Z,6.35
2022-11-07T07:07:09.868Z,6.53
2022-11-07T07:08:13.992Z,5.90
2022-11-07T07:09:16.575Z,6.85
2022-11-07T07:10:19.031Z,6.78
2022-11-07T07:11:22.005Z,5.60
2022-11-07T07:12:26.296Z,6.15
2022-11-07T07:13:29.855Z,6.90
2022-11-07T07:14:32.369Z,7.90
2022-11-07T07:15:49.373Z,7.00
2022-11-07T07:16:52.696Z,6.60
2022-11-07T07:17:59.425Z,6.25
2022-11-07T07:19:01.889Z,6.68
2022-11-07T07:20:05.353Z,6.82
2022-11-07T07:21:13.200Z,5.95
2022-11-07T07:22:15.569Z,6.25
2022-11-07T07:23:19.684Z,7.50
2022-11-07T07:24:22.166Z,7.22
2022-11-07T07:25:25.039Z,6.35
2022-11-07T07:26:28.391Z,6.97
2022-11-07T07:27:30.708Z,6.57
2022-11-07T07:28:33.369Z,6.80
2022-11-07T07:29:35.751Z,6.60
2022-11-07T07:30:38.609Z,5.93
2022-11-07T07:31:40.905Z,6.50
2022-11-07T07:32:43.392Z,6.38
2022-11-07T07:33:48.256Z,6.38
2022-11-07T07:34:50.985Z,6.55
2022-11-07T07:35:53.303Z,6.35
2022-11-07T07:36:55.749Z,6.10
2022-11-07T07:37:58.226Z,6.53
2022-11-07T07:39:00.644Z,6.22
2022-11-07T07:40:03.261Z,6.45
2022-11-07T07:41:06.008Z,6.78
2022-11-07T07:42:09.251Z,6.53
2022-11-07T07:43:11.567Z,6.50
2022-11-07T07:44:13.880Z,5.95
2022-11-07T07:45:16.707Z,6.45
2022-11-07T07:46:23.819Z,6.30
2022-11-07T07:47:26.214Z,6.25
2022-11-07T07:48:28.944Z,6.45
2022-11-07T07:49:31.237Z,5.88
2022-11-07T07:50:33.638Z,6.43
2022-11-07T07:51:35.976Z,6.93
2022-11-07T07:52:38.645Z,6.45
2022-11-07T07:53:41.053Z,6.20
2022-11-07T07:54:43.456Z,6.10
2022-11-07T07:55:45.849Z,6.35
2022-11-07T07:56:48.191Z,6.85
2022-11-07T07:57:50.900Z,6.70
2022-11-07T07:58:53.431Z,6.10
2022-11-07T07:59:55.821Z,6.75
2022-11-07T08:00:58.324Z,6.57
2022-11-07T08:02:00.768Z,6.30
2022-11-07T08:03:06.699Z,6.85
2022-11-07T08:04:09.054Z,6.15
2022-11-07T08:05:13.082Z,6.22
2022-11-07T08:06:15.963Z,6.57
2022-11-07T08:07:18.371Z,5.80
2022-11-07T08:08:21.332Z,6.03
2022-11-07T08:09:23.656Z,6.20
2022-11-07T08:10:42.877Z,5.80
2022-11-07T08:11:45.618Z,5.55
2022-11-07T08:12:49.797Z,6.50
2022-11-07T08:13:52.197Z,5.72
2022-11-07T08:14:54.486Z,6.22
2022-11-07T08:15:57.363Z,5.50
2022-11-07T08:17:00.598Z,5.88
2022-11-07T08:18:04.254Z,6.50
2022-11-07T08:19:06.582Z,5.88
2022-11-07T08:20:10.808Z,6.07
2022-11-07T08:21:13.133Z,6.13
2022-11-07T08:22:15.479Z,5.70
2022-11-07T08:23:18.180Z,5.82
2022-11-07T08:24:21.188Z,6.30
2022-11-07T08:25:23.495Z,5.50
2022-11-07T08:26:26.144Z,5.97
2022-11-07T08:27:28.662Z,6.10
2022-11-07T08:28:34.069Z,5.25
2022-11-07T08:29:36.464Z,5.78
2022-11-07T08:30:38.796Z,5.40
2022-11-07T08:31:41.083Z,5.38
2022-11-07T08:32:43.538Z,5.03
2022-11-07T08:33:45.853Z,4.82
2022-11-07T08:34:48.384Z,5.13
2022-11-07T08:35:50.777Z,4.80
2022-11-07T08:36:53.164Z,4.85
2022-11-07T08:37:55.625Z,5.18
2022-11-07T08:38:58.071Z,5.15
2022-11-07T08:40:00.386Z,5.03
2022-11-07T08:41:03.658Z,4.75
2022-11-07T08:42:06.203Z,5.43
2022-11-07T08:43:08.683Z,5.53
2022-11-07T08:44:11.104Z,5.72
2022-11-07T08:45:13.452Z,5.10
2022-11-07T08:46:15.843Z,5.32
2022-11-07T08:47:18.255Z,5.97
2022-11-07T08:48:21.428Z,5.63
2022-11-07T08:49:23.877Z,4.50
2022-11-07T08:50:26.944Z,4.20
2022-11-07T08:51:29.290Z,4.60
2022-11-07T08:52:31.662Z,4.40
2022-11-07T08:53:34.081Z,6.57
2022-11-07T08:54:36.433Z,33.55
2022-11-07T08:55:38.828Z,65.93
2022-11-07T08:56:41.194Z,20.63
2022-11-07T08:57:43.509Z,13.35
2022-11-07T08:58:45.993Z,9.65
2022-11-07T08:59:48.340Z,8.10
2022-11-07T09:00:50.688Z,8.27
2022-11-07T09:03:43.692Z,7.30
2022-11-07T09:04:37.701Z,9.80
2022-11-07T09:05:40.288Z,10.30
2022-11-07T09:06:42.894Z,9.50
2022-11-07T09:07:45.316Z,9.73
2022-11-07T09:08:47.614Z,10.18
2022-11-07T09:09:49.933Z,10.35
2022-11-07T09:10:52.296Z,10.27
2022-11-07T09:11:54.647Z,9.63
2022-11-07T09:12:57.018Z,9.32
2022-11-07T09:13:59.374Z,9.80
2022-11-07T09:15:01.971Z,9.32
2022-11-07T09:16:05.527Z,9.27
2022-11-07T09:17:08.052Z,9.85
2022-11-07T09:18:10.585Z,8.82
2022-11-07T09:19:12.895Z,9.55
2022-11-07T09:20:15.223Z,9.52
2022-11-07T09:21:22.148Z,9.73
2022-11-07T09:22:25.339Z,10.90
2022-11-07T09:23:27.812Z,10.90
2022-11-07T09:24:30.476Z,11.73
2022-11-07T09:25:32.832Z,11.35
2022-11-07T09:26:35.300Z,10.73
2022-11-07T09:27:37.709Z,9.98
2022-11-07T09:28:40.010Z,10.52
2022-11-07T09:29:42.281Z,10.40
2022-11-07T09:30:44.681Z,9.30
2022-11-07T09:31:47.022Z,10.25
2022-11-07T09:32:49.356Z,9.75
2022-11-07T09:33:52.085Z,10.48
2022-11-07T09:34:59.290Z,10.05
2022-11-07T09:36:05.630Z,9.52
2022-11-07T09:37:07.943Z,8.98
2022-11-07T09:38:10.220Z,9.93
2022-11-07T09:39:12.596Z,9.15
2022-11-07T09:40:40.364Z,9.70
2022-11-07T09:42:33.675Z,10.43
2022-11-07T09:43:56.415Z,9.75
2022-11-07T09:45:02.022Z,10.07
2022-11-07T09:46:13.203Z,8.20
2022-11-07T09:47:23.307Z,8.95
2022-11-07T09:48:31.991Z,9.93
2022-11-07T09:49:38.594Z,8.73
2022-11-07T09:50:42.978Z,10.38
2022-11-07T09:51:54.105Z,9.05
2022-11-07T09:53:06.122Z,10.43
2022-11-07T09:54:21.668Z,9.13
2022-11-07T09:55:55.224Z,9.77
2022-11-07T09:57:00.053Z,9.23
2022-11-07T09:58:31.201Z,8.55
2022-11-07T09:59:46.420Z,8.83
2022-11-07T10:00:48.816Z,8.85
2022-11-07T10:01:51.513Z,9.52
2022-11-07T10:02:56.845Z,8.98
2022-11-07T10:05:37.802Z,8.95
2022-11-07T10:06:49.172Z,8.73
2022-11-07T10:09:09.838Z,8.02
2022-11-07T10:10:42.750Z,7.90
2022-11-07T10:11:47.800Z,8.77
2022-11-07T10:13:20.547Z,8.18
2022-11-07T10:14:46.860Z,7.45
2022-11-07T10:16:15.089Z,8.50
2022-11-07T10:17:29.405Z,8.52
2022-11-07T10:18:52.659Z,7.97
2022-11-07T10:20:13.426Z,8.00
2022-11-07T10:21:40.242Z,8.25
2022-11-07T10:23:10.280Z,8.50
2022-11-07T10:24:38.773Z,8.02
2022-11-07T10:25:52.217Z,8.23
2022-11-07T10:26:57.157Z,8.23
2022-11-07T10:28:13.711Z,7.70
2022-11-07T10:29:18.811Z,8.00
2022-11-07T10:30:21.572Z,8.30
2022-11-07T10:31:32.159Z,7.40
2022-11-07T10:32:43.961Z,8.23
2022-11-07T10:33:56.636Z,7.90
2022-11-07T10:35:04.442Z,8.57
2022-11-07T10:36:30.531Z,8.15
2022-11-07T10:37:33.430Z,7.68
2022-11-07T10:38:41.694Z,8.07
2022-11-07T10:39:44.267Z,7.68
2022-11-07T10:40:47.813Z,7.85
2022-11-07T10:41:57.860Z,7.95
2022-11-07T10:43:04.437Z,7.50
2022-11-07T10:44:11.614Z,7.95
2022-11-07T10:45:16.843Z,7.80
2022-11-07T10:46:22.873Z,7.28
2022-11-07T10:47:27.650Z,7.68
2022-11-07T10:48:30.536Z,7.70
2022-11-07T10:49:33.167Z,7.32
2022-11-07T10:50:35.620Z,8.38
2022-11-07T10:51:40.186Z,7.28
2022-11-07T10:52:52.043Z,7.57
2022-11-07T10:53:54.938Z,7.45
2022-11-07T10:55:09.257Z,6.70
2022-11-07T10:56:13.198Z,7.47
2022-11-07T10:57:20.791Z,6.90
2022-11-07T10:58:26.733Z,7.20
2022-11-07T10:59:35.921Z,7.60
2022-11-07T11:00:41.861Z,6.80
2022-11-07T11:01:50.772Z,6.90
2022-11-07T11:02:54.568Z,8.02
2022-11-07T11:03:57.366Z,7.13
2022-11-07T11:05:02.742Z,6.05
2022-11-07T11:06:10.987Z,6.63
2022-11-07T11:07:13.757Z,7.53
2022-11-07T11:08:27.445Z,7.40
2022-11-07T11:09:34.941Z,7.50
2022-11-07T11:10:39.517Z,7.63
2022-11-07T11:11:50.562Z,7.05
2022-11-07T11:12:52.994Z,7.50
2022-11-07T11:14:21.561Z,7.28
2022-11-07T11:15:34.319Z,6.95
2022-11-07T11:16:43.397Z,6.07
2022-11-07T11:17:46.760Z,6.25
2022-11-07T11:18:50.452Z,7.20
2022-11-07T11:19:53.851Z,7.55
2022-11-07T11:21:03.327Z,6.75
2022-11-07T11:22:14.467Z,8.02
2022-11-07T11:23:26.726Z,7.07
2022-11-07T11:24:35.614Z,7.07
2022-11-07T11:25:46.842Z,7.28
2022-11-07T11:26:52.055Z,7.65
2022-11-07T11:28:04.170Z,6.30
2022-11-07T11:29:11.811Z,5.90
2022-11-07T11:30:19.640Z,6.07
2022-11-07T11:31:29.256Z,5.75
2022-11-07T11:32:52.028Z,5.25
2022-11-07T11:34:02.248Z,5.78
2022-11-07T11:35:29.309Z,6.10
2022-11-07T11:36:38.139Z,5.85
2022-11-07T11:37:43.820Z,5.40
2022-11-07T11:38:54.296Z,5.65
2022-11-07T11:40:09.206Z,5.80
2022-11-07T11:41:22.695Z,6.13
2022-11-07T11:43:02.514Z,5.95
2022-11-07T11:44:18.301Z,6.70
2022-11-07T11:45:39.505Z,5.57
2022-11-07T11:46:53.249Z,5.45
2022-11-07T11:48:13.475Z,5.28
2022-11-07T11:49:21.516Z,5.85
2022-11-07T11:50:47.937Z,6.28
2022-11-07T11:52:01.139Z,5.72
2022-11-07T11:53:03.522Z,6.25
2022-11-07T11:54:10.171Z,6.05
2022-11-07T11:55:17.421Z,5.65
2022-11-07T11:56:52.997Z,5.38
2022-11-07T11:58:18.859Z,4.03
2022-11-07T11:59:55.550Z,3.80
2022-11-07T12:01:11.374Z,3.08
2022-11-07T12:02:32.811Z,2.70
2022-11-07T12:04:08.442Z,2.33
2022-11-07T12:05:32.478Z,2.50
2022-11-07T12:07:00.427Z,2.65
2022-11-07T12:08:29.206Z,7.18
2022-11-07T12:09:45.265Z,13.77
2022-11-07T12:11:02.805Z,8.25
2022-11-07T12:12:26.493Z,9.38
2022-11-07T12:13:56.634Z,9.98
2022-11-07T12:15:12.768Z,7.03
2022-11-07T12:16:32.295Z,8.55
2022-11-07T12:17:52.602Z,6.95
2022-11-07T12:19:21.639Z,8.13
2022-11-07T12:21:09.407Z,8.20
2022-11-07T12:22:30.341Z,8.50
2022-11-07T12:23:57.035Z,8.75
2022-11-07T12:25:17.863Z,7.80
2022-11-07T12:26:41.964Z,8.90
2022-11-07T12:27:53.130Z,8.50
2022-11-07T12:29:07.929Z,8.60
2022-11-07T12:30:22.975Z,8.65
2022-11-07T12:31:31.508Z,8.25
2022-11-07T12:32:55.987Z,8.35
2022-11-07T12:34:16.799Z,8.18
2022-11-07T12:35:37.937Z,9.10
2022-11-07T12:36:50.463Z,7.70
2022-11-07T12:38:05.877Z,8.25
2022-11-07T12:39:27.598Z,7.82
2022-11-07T12:40:38.769Z,8.63
2022-11-07T12:41:52.911Z,7.93
2022-11-07T12:43:21.309Z,8.70
2022-11-07T12:45:12.487Z,8.05
2022-11-07T12:46:34.072Z,7.90
2022-11-07T12:47:55.566Z,8.57
2022-11-07T12:49:19.915Z,7.22
2022-11-07T12:50:47.213Z,7.18
2022-11-07T12:51:49.512Z,7.85
2022-11-07T12:53:30.159Z,7.80
2022-11-07T12:54:41.178Z,7.90
2022-11-07T12:55:49.963Z,6.97
2022-11-07T12:56:54.065Z,7.15
2022-11-07T12:57:57.093Z,8.25
2022-11-07T12:59:03.785Z,6.45
2022-11-07T13:00:06.788Z,7.97
2022-11-07T13:01:13.678Z,6.95
2022-11-07T13:02:50.678Z,6.85
2022-11-07T13:04:12.483Z,7.05
2022-11-07T13:05:33.231Z,7.53
2022-11-07T13:07:03.187Z,6.45
2022-11-07T13:08:57.744Z,7.00
2022-11-07T13:10:15.842Z,7.32
2022-11-07T13:11:21.695Z,7.07
2022-11-07T13:12:53.390Z,7.40
2022-11-07T13:14:23.977Z,7.20
2022-11-07T13:15:27.127Z,6.38
2022-11-07T13:16:32.053Z,6.47
2022-11-07T13:17:43.501Z,6.18
2022-11-07T13:18:45.878Z,7.38
2022-11-07T13:20:05.551Z,6.32
2022-11-07T13:21:08.769Z,6.93
2022-11-07T13:22:16.922Z,6.05
2022-11-07T13:23:28.187Z,6.63
2022-11-07T13:25:34.810Z,6.55
2022-11-07T13:26:52.679Z,6.35
2022-11-07T13:27:57.998Z,6.47
2022-11-07T13:29:02.495Z,6.22
2022-11-07T13:30:14.418Z,6.68
2022-11-07T13:32:04.444Z,5.95
2022-11-07T13:33:24.206Z,6.47
2022-11-07T13:34:27.098Z,5.97
2022-11-07T13:35:36.030Z,6.53
2022-11-07T13:36:39.334Z,6.75
2022-11-07T13:37:47.855Z,6.30
2022-11-07T13:38:52.745Z,6.40
2022-11-07T13:40:18.215Z,6.15
2022-11-07T13:41:20.897Z,6.28
2022-11-07T13:42:25.774Z,6.68
2022-11-07T13:43:44.739Z,6.10
2022-11-07T13:44:55.883Z,6.63
2022-11-07T13:46:03.871Z,7.35
2022-11-07T13:47:13.386Z,6.82
2022-11-07T13:48:22.703Z,6.65
2022-11-07T13:49:30.221Z,6.10
2022-11-07T13:50:40.479Z,7.85
2022-11-07T13:51:45.842Z,7.20
2022-11-07T13:53:20.830Z,7.30
2022-11-07T13:54:28.738Z,6.25
2022-11-07T13:55:44.528Z,6.55
2022-11-07T13:56:55.034Z,5.57
2022-11-07T13:58:09.066Z,6.35
2022-11-07T13:59:20.608Z,6.82
2022-11-07T14:00:23.482Z,5.95
2022-11-07T14:01:25.931Z,6.43
2022-11-07T14:02:31.039Z,6.70
2022-11-07T14:03:33.979Z,5.93
2022-11-07T14:04:44.531Z,6.82
2022-11-07T14:05:58.108Z,6.30
2022-11-07T14:07:02.847Z,5.70
2022-11-07T14:08:18.031Z,6.40
2022-11-07T14:09:21.160Z,5.72
2022-11-07T14:10:28.645Z,5.93
2022-11-07T14:11:36.594Z,5.95
2022-11-07T14:12:39.846Z,6.10
2022-11-07T14:13:42.576Z,6.70
2022-11-07T14:14:45.398Z,5.78
2022-11-07T14:15:50.847Z,6.18
2022-11-07T14:17:00.260Z,6.30
2022-11-07T14:18:04.324Z,6.50
2022-11-07T14:19:14.780Z,6.07
2022-11-07T14:20:19.617Z,5.65
2022-11-07T14:21:26.588Z,6.10
2022-11-07T14:22:28.981Z,5.75
2022-11-07T14:23:32.751Z,5.88
2022-11-07T14:24:35.957Z,6.28
2022-11-07T14:25:40.636Z,5.90
2022-11-07T14:26:43.884Z,5.95
2022-11-07T14:27:46.972Z,5.50
2022-11-07T14:28:50.284Z,3.28
2022-11-07T14:30:00.361Z,16.38
2022-11-07T14:31:05.984Z,11.18
2022-11-07T14:32:16.213Z,7.88
2022-11-07T14:33:22.274Z,88.97
2022-11-07T14:34:25.025Z,47.22
2022-11-07T14:35:33.488Z,25.60
2022-11-07T14:36:36.039Z,23.80
2022-11-07T14:37:38.395Z,27.25
2022-11-07T14:38:52.852Z,19.85
2022-11-07T14:39:55.151Z,18.63
2022-11-07T14:41:01.262Z,12.23
2022-11-07T14:42:04.152Z,10.18
2022-11-07T14:43:07.116Z,7.88
2022-11-07T14:44:53.421Z,17.67
2022-11-07T14:46:17.612Z,9.02
2022-11-07T14:47:32.896Z,6.47
2022-11-07T14:48:35.940Z,6.25
2022-11-07T14:49:41.497Z,5.55
2022-11-07T14:50:45.593Z,5.18
2022-11-07T14:51:48.182Z,5.30
2022-11-07T14:53:02.373Z,4.65
2022-11-07T14:54:16.044Z,5.07
2022-11-07T14:55:31.220Z,5.22